createdAt,value
2023-01-08T00:02:05.165Z,3.10
2023-01-08T00:04:35.711Z,3.11
2023-01-08T00:07:05.484Z,3.10
2023-01-08T00:09:34.696Z,3.08
2023-01-08T00:12:04.980Z,3.09
2023-01-08T00:14:35.461Z,3.08
2023-01-08T00:17:05.785Z,3.04
2023-01-08T00:19:38.456Z,2.99
2023-01-08T00:22:09.288Z,2.94
2023-01-08T00:24:39.920Z,2.90
2023-01-08T00:27:10.631Z,2.85
2023-01-08T00:29:41.554Z,2.85
2023-01-08T00:32:12.447Z,2.84
2023-01-08T00:34:43.405Z,2.83
2023-01-08T00:37:13.673Z,2.83
2023-01-08T00:39:44.278Z,2.82
2023-01-08T00:42:15.022Z,2.77
2023-01-08T00:44:45.525Z,2.73
2023-01-08T00:47:16.216Z,2.71
2023-01-08T00:49:47.276Z,2.72
2023-01-08T00:52:17.970Z,2.71
2023-01-08T00:54:47.779Z,2.68
2023-01-08T00:57:17.941Z,2.68
2023-01-08T00:59:49.123Z,2.64
2023-01-08T01:02:20.176Z,2.62
2023-01-08T01:04:50.524Z,2.60
2023-01-08T01:07:22.264Z,2.57
2023-01-08T01:09:53.163Z,2.54
2023-01-08T01:12:23.920Z,2.50
2023-01-08T01:14:54.552Z,2.49
2023-01-08T01:17:25.411Z,2.45
2023-01-08T01:19:56.401Z,2.42
2023-01-08T01:22:27.113Z,2.43
2023-01-08T01:24:56.621Z,2.44
2023-01-08T01:27:27.423Z,2.39
2023-01-08T01:29:58.119Z,2.32
2023-01-08T01:32:28.071Z,2.24
2023-01-08T01:34:57.117Z,2.17
2023-01-08T01:37:26.256Z,2.13
2023-01-08T01:39:57.474Z,2.12
2023-01-08T01:42:45.874Z,2.09
2023-01-08T01:45:19.098Z,2.04
2023-01-08T01:48:03.728Z,1.94
2023-01-08T01:50:40.610Z,1.76
2023-01-08T01:53:20.001Z,1.69
2023-01-08T01:55:51.253Z,1.69
2023-01-08T01:58:29.917Z,1.69
2023-01-08T02:01:08.703Z,1.69
2023-01-08T02:03:41.523Z,1.66
2023-01-08T02:06:47.248Z,1.64
2023-01-08T02:09:44.638Z,1.59
2023-01-08T02:12:26.822Z,1.56
2023-01-08T02:15:22.592Z,1.56
2023-01-08T02:18:02.869Z,1.52
2023-01-08T02:20:40.228Z,1.46
2023-01-08T02:23:21.593Z,1.38
2023-01-08T02:26:13.229Z,1.29
2023-01-08T02:29:00.743Z,1.22
2023-01-08T02:31:32.847Z,1.14
2023-01-08T02:34:03.641Z,1.11
2023-01-08T02:36:41.638Z,1.17
2023-01-08T02:39:32.901Z,1.25
2023-01-08T02:42:22.380Z,1.30
2023-01-08T02:45:01.708Z,1.37
2023-01-08T02:47:45.625Z,1.44
2023-01-08T02:50:31.639Z,1.44
2023-01-08T02:53:19.574Z,1.39
2023-01-08T02:56:01.253Z,1.40
2023-01-08T02:58:34.487Z,1.37
2023-01-08T03:01:08.576Z,1.31
2023-01-08T03:03:40.696Z,1.32
2023-01-08T03:06:16.580Z,1.39
2023-01-08T03:08:50.311Z,1.47
2023-01-08T03:11:21.998Z,1.55
2023-01-08T03:14:05.457Z,1.58
2023-01-08T03:16:40.093Z,1.61
2023-01-08T03:19:20.022Z,1.65
2023-01-08T03:21:52.377Z,1.68
2023-01-08T03:24:28.099Z,1.71
2023-01-08T03:27:03.452Z,1.75
2023-01-08T03:29:35.110Z,1.78
2023-01-08T03:32:10.813Z,1.78
2023-01-08T03:34:44.662Z,1.79
2023-01-08T03:37:19.902Z,1.78
2023-01-08T03:40:08.650Z,1.77
2023-01-08T03:42:39.247Z,1.73
2023-01-08T03:45:12.386Z,1.67
2023-01-08T03:47:43.336Z,1.65
2023-01-08T03:50:21.615Z,1.66
2023-01-08T03:52:52.780Z,1.69
2023-01-08T03:55:23.297Z,1.69
2023-01-08T03:57:53.517Z,1.67
2023-01-08T04:00:24.062Z,1.68
2023-01-08T04:02:53.132Z,1.69
2023-01-08T04:05:24.134Z,1.68
2023-01-08T04:07:58.284Z,1.66
2023-01-08T04:10:28.833Z,1.63
2023-01-08T04:13:00.424Z,1.62
2023-01-08T04:15:31.333Z,1.62
2023-01-08T04:18:00.413Z,1.61
2023-01-08T04:20:30.815Z,1.57
2023-01-08T04:23:01.029Z,1.54
2023-01-08T04:25:31.688Z,1.51
2023-01-08T04:28:02.193Z,1.44
2023-01-08T04:30:33.344Z,1.30
2023-01-08T04:33:04.197Z,1.15
2023-01-08T04:35:35.214Z,1.04
2023-01-08T04:38:05.952Z,1.02
2023-01-08T04:40:35.777Z,1.02
2023-01-08T04:43:06.016Z,1.06
2023-01-08T04:45:36.324Z,1.09
2023-01-08T04:48:07.500Z,1.10
2023-01-08T04:50:38.005Z,1.06
2023-01-08T04:53:07.807Z,1.03
2023-01-08T04:55:39.726Z,0.99
2023-01-08T04:58:10.775Z,0.93
2023-01-08T05:00:41.700Z,0.88
2023-01-08T05:03:11.929Z,0.87
2023-01-08T05:05:42.136Z,0.89
2023-01-08T05:08:12.361Z,0.91
2023-01-08T05:10:41.344Z,0.92
2023-01-08T05:13:10.313Z,0.89
2023-01-08T05:15:40.484Z,0.84
2023-01-08T05:18:11.010Z,0.83
2023-01-08T05:20:43.641Z,0.78
2023-01-08T05:23:13.704Z,0.78
2023-01-08T05:25:43.989Z,0.82
2023-01-08T05:28:14.070Z,0.83
2023-01-08T05:30:43.521Z,0.84
2023-01-08T05:33:13.815Z,0.88
2023-01-08T05:35:44.436Z,0.83
2023-01-08T05:38:14.880Z,0.80
2023-01-08T05:40:45.032Z,0.83
2023-01-08T05:43:15.097Z,0.89
2023-01-08T05:45:44.020Z,0.95
2023-01-08T05:48:15.280Z,1.00
2023-01-08T05:50:45.585Z,1.05
2023-01-08T05:53:15.695Z,1.08
2023-01-08T05:55:45.582Z,1.13
2023-01-08T05:58:19.532Z,1.16
2023-01-08T06:00:49.331Z,1.12
2023-01-08T06:03:22.870Z,1.05
2023-01-08T06:05:53.306Z,1.02
2023-01-08T06:08:23.885Z,0.99
2023-01-08T06:10:54.671Z,0.94
2023-01-08T06:13:25.205Z,0.86
2023-01-08T06:15:55.416Z,0.84
2023-01-08T06:18:25.522Z,0.91
2023-01-08T06:20:56.491Z,0.94
2023-01-08T06:23:27.023Z,0.96
2023-01-08T06:25:59.354Z,0.98
2023-01-08T06:28:29.415Z,1.01
2023-01-08T06:31:00.832Z,1.04
2023-01-08T06:33:32.212Z,1.07
2023-01-08T06:36:06.258Z,1.07
2023-01-08T06:38:37.325Z,1.13
2023-01-08T06:41:10.531Z,1.14
2023-01-08T06:43:40.819Z,1.12
2023-01-08T06:46:10.985Z,1.06
2023-01-08T06:48:41.309Z,1.01
2023-01-08T06:51:11.831Z,0.93
2023-01-08T06:53:42.102Z,0.88
2023-01-08T06:56:12.628Z,0.88
2023-01-08T06:58:41.736Z,0.90
2023-01-08T07:01:16.943Z,0.98
2023-01-08T07:03:47.211Z,1.05
2023-01-08T07:06:19.435Z,1.07
2023-01-08T07:08:49.665Z,1.09
2023-01-08T07:11:19.837Z,1.15
2023-01-08T07:13:50.002Z,1.20
2023-01-08T07:16:20.247Z,1.22
2023-01-08T07:18:50.487Z,1.23
2023-01-08T07:21:21.768Z,1.25
2023-01-08T07:23:51.987Z,1.26
2023-01-08T07:26:22.136Z,1.28
2023-01-08T07:28:52.358Z,1.28
2023-01-08T07:31:22.620Z,1.26
2023-01-08T07:33:52.292Z,1.22
2023-01-08T07:36:23.723Z,1.20
2023-01-08T07:38:53.589Z,1.19
2023-01-08T07:41:23.807Z,1.17
2023-01-08T07:43:53.555Z,1.14
2023-01-08T07:46:23.891Z,1.13
2023-01-08T07:48:54.424Z,1.14
2023-01-08T07:51:24.613Z,1.14
2023-01-08T07:53:56.812Z,1.14
2023-01-08T07:56:26.943Z,1.11
2023-01-08T07:58:57.194Z,1.07
2023-01-08T08:01:27.637Z,1.06
2023-01-08T08:03:57.860Z,1.04
2023-01-08T08:06:28.390Z,1.02
2023-01-08T08:09:00.568Z,1.02
2023-01-08T08:11:30.704Z,1.01
2023-01-08T08:14:00.917Z,0.99
2023-01-08T08:16:31.277Z,1.01
2023-01-08T08:19:01.549Z,1.01
2023-01-08T08:21:31.446Z,1.02
2023-01-08T08:24:01.859Z,1.05
2023-01-08T08:26:32.410Z,1.10
2023-01-08T08:29:01.581Z,1.13
2023-01-08T08:31:31.859Z,1.16
2023-01-08T08:34:01.623Z,1.20
2023-01-08T08:36:31.858Z,1.24
2023-01-08T08:39:03.424Z,1.29
2023-01-08T08:41:33.603Z,1.34
2023-01-08T08:44:04.106Z,1.38
2023-01-08T08:46:34.408Z,1.40
2023-01-08T08:49:04.664Z,1.42
2023-01-08T08:51:34.764Z,1.40
2023-01-08T08:54:04.980Z,1.42
2023-01-08T08:56:34.674Z,1.46
2023-01-08T08:59:04.337Z,1.51
2023-01-08T09:01:34.961Z,1.56
2023-01-08T09:04:05.217Z,1.61
2023-01-08T09:06:34.187Z,1.58
2023-01-08T09:09:05.725Z,1.53
2023-01-08T09:11:36.062Z,1.58
2023-01-08T09:14:06.162Z,1.65
2023-01-08T09:16:37.548Z,1.64
2023-01-08T09:19:08.039Z,1.70
2023-01-08T09:21:38.442Z,1.77
2023-01-08T09:24:10.843Z,1.80
2023-01-08T09:26:41.035Z,1.80
2023-01-08T09:29:11.155Z,1.85
2023-01-08T09:31:41.736Z,1.89
2023-01-08T09:34:12.171Z,1.94
2023-01-08T09:36:42.719Z,2.04
2023-01-08T09:39:13.408Z,2.03
2023-01-08T09:41:47.001Z,2.05
2023-01-08T09:44:23.503Z,2.05
2023-01-08T09:46:56.632Z,2.08
2023-01-08T09:49:43.101Z,2.16
2023-01-08T09:52:15.739Z,2.21
2023-01-08T09:54:46.292Z,2.25
2023-01-08T09:57:22.086Z,2.28
2023-01-08T09:59:52.204Z,2.35
2023-01-08T10:02:25.886Z,2.40
2023-01-08T10:05:01.320Z,2.40
2023-01-08T10:07:31.928Z,2.47
2023-01-08T10:10:02.289Z,2.52
2023-01-08T10:12:34.291Z,2.56
2023-01-08T10:15:08.797Z,2.58
2023-01-08T10:17:40.358Z,2.56
2023-01-08T10:20:19.909Z,2.61
2023-01-08T10:22:55.123Z,2.63
2023-01-08T10:25:27.928Z,2.65
2023-01-08T10:28:02.961Z,2.66
2023-01-08T10:30:42.894Z,2.67
2023-01-08T10:33:20.851Z,2.67
2023-01-08T10:36:02.441Z,2.67
2023-01-08T10:38:35.285Z,2.76
2023-01-08T10:41:11.715Z,2.75
2023-01-08T10:43:53.207Z,2.77
2023-01-08T10:46:29.839Z,2.77
2023-01-08T10:49:02.967Z,2.83
2023-01-08T10:51:33.694Z,2.91
2023-01-08T10:54:24.663Z,3.09
2023-01-08T10:56:55.284Z,3.27
2023-01-08T10:59:26.532Z,3.36
2023-01-08T11:01:58.936Z,3.46
2023-01-08T11:04:36.936Z,3.51
2023-01-08T11:07:08.287Z,3.57
2023-01-08T11:09:48.488Z,3.61
2023-01-08T11:12:41.253Z,3.62
2023-01-08T11:15:16.010Z,3.60
2023-01-08T11:17:46.890Z,3.63
2023-01-08T11:20:29.755Z,3.65
2023-01-08T11:23:19.415Z,3.71
2023-01-08T11:25:57.861Z,3.76
2023-01-08T11:28:57.241Z,3.75
2023-01-08T11:31:44.411Z,3.70
2023-01-08T11:34:24.344Z,3.67
2023-01-08T11:37:21.618Z,3.63
2023-01-08T11:39:53.770Z,3.62
2023-01-08T11:43:03.268Z,3.69
2023-01-08T11:45:47.434Z,3.74
2023-01-08T11:48:51.771Z,3.77
2023-01-08T11:51:50.291Z,3.78
2023-01-08T11:54:44.962Z,3.78
2023-01-08T11:57:30.283Z,3.76
2023-01-08T12:00:09.607Z,3.79
2023-01-08T12:02:58.449Z,3.82
2023-01-08T12:05:32.650Z,3.87
2023-01-08T12:08:08.609Z,3.91
2023-01-08T12:11:35.972Z,3.98
2023-01-08T12:14:11.231Z,4.02
2023-01-08T12:17:05.586Z,4.05
2023-01-08T12:20:07.386Z,4.04
2023-01-08T12:22:54.009Z,4.05
2023-01-08T12:25:33.354Z,4.11
2023-01-08T12:28:09.396Z,4.18
2023-01-08T12:30:42.793Z,4.26
2023-01-08T12:33:34.897Z,4.24
2023-01-08T12:36:11.377Z,4.20
2023-01-08T12:38:45.404Z,4.08
2023-01-08T12:41:19.294Z,4.01
2023-01-08T12:44:03.080Z,4.03
2023-01-08T12:46:39.111Z,4.06
2023-01-08T12:49:12.331Z,4.07
2023-01-08T12:51:56.895Z,4.08
2023-01-08T12:54:36.283Z,4.12
2023-01-08T12:57:18.430Z,4.10
2023-01-08T12:59:55.320Z,4.07
2023-01-08T13:02:53.125Z,4.04
2023-01-08T13:05:22.309Z,4.01
2023-01-08T13:07:56.979Z,3.94
2023-01-08T13:10:33.719Z,3.96
2023-01-08T13:13:06.207Z,4.02
2023-01-08T13:15:36.927Z,4.05
2023-01-08T13:18:24.963Z,4.08
2023-01-08T13:21:00.665Z,4.13
2023-01-08T13:23:35.452Z,4.17
2023-01-08T13:26:07.411Z,4.21
2023-01-08T13:28:38.101Z,4.24
2023-01-08T13:31:24.963Z,4.21
2023-01-08T13:33:56.206Z,4.22
2023-01-08T13:36:29.230Z,4.25
2023-01-08T13:39:06.377Z,4.24
2023-01-08T13:42:20.904Z,4.21
2023-01-08T13:44:57.784Z,4.17
2023-01-08T13:47:38.883Z,4.17
2023-01-08T13:50:22.227Z,4.20
2023-01-08T13:53:00.100Z,4.18
2023-01-08T13:55:35.448Z,4.16
2023-01-08T13:58:21.946Z,4.18
2023-01-08T14:00:56.186Z,4.19
2023-01-08T14:03:29.092Z,4.19
2023-01-08T14:06:11.963Z,4.19
2023-01-08T14:08:52.758Z,4.21
2023-01-08T14:11:42.412Z,4.22
2023-01-08T14:14:15.364Z,4.23
2023-01-08T14:16:47.084Z,4.20
2023-01-08T14:19:23.237Z,4.14
2023-01-08T14:22:02.272Z,4.08
2023-01-08T14:24:32.683Z,4.01
2023-01-08T14:27:01.727Z,3.92
2023-01-08T14:29:35.153Z,3.84
2023-01-08T14:32:15.601Z,3.83
2023-01-08T14:34:45.667Z,3.85
2023-01-08T14:37:16.927Z,3.84
2023-01-08T14:39:55.203Z,3.81
2023-01-08T14:42:47.999Z,3.77
2023-01-08T14:45:27.961Z,3.72
2023-01-08T14:48:19.159Z,3.69
2023-01-08T14:51:04.556Z,3.61
2023-01-08T14:53:50.758Z,3.57
2023-01-08T14:56:31.579Z,3.53
2023-01-08T14:59:08.190Z,3.53
2023-01-08T15:01:39.448Z,3.51
2023-01-08T15:04:22.566Z,3.49
2023-01-08T15:07:05.779Z,3.48
2023-01-08T15:09:37.118Z,3.45
2023-01-08T15:12:23.134Z,3.42
2023-01-08T15:14:55.639Z,3.37
2023-01-08T15:17:29.617Z,3.34
2023-01-08T15:20:02.073Z,3.30
2023-01-08T15:22:33.132Z,3.26
2023-01-08T15:25:07.528Z,3.24
2023-01-08T15:27:40.247Z,3.23
2023-01-08T15:30:27.545Z,3.25
2023-01-08T15:33:08.235Z,3.23
2023-01-08T15:35:38.884Z,3.21
2023-01-08T15:38:09.495Z,3.17
2023-01-08T15:40:38.720Z,3.11
2023-01-08T15:43:15.993Z,3.06
2023-01-08T15:45:48.082Z,3.05
2023-01-08T15:48:17.920Z,3.07
2023-01-08T15:50:47.597Z,3.07
2023-01-08T15:53:19.481Z,3.05
2023-01-08T15:55:50.268Z,3.00
2023-01-08T15:58:20.177Z,2.94
2023-01-08T16:00:49.158Z,2.91
2023-01-08T16:03:19.387Z,2.88
2023-01-08T16:05:49.596Z,2.85
2023-01-08T16:10:26.291Z,2.87
2023-01-08T16:14:19.741Z,2.80
2023-01-08T16:37:49.287Z,2.73
2023-01-08T16:41:41.808Z,2.65
2023-01-08T16:45:34.739Z,2.62
2023-01-08T17:01:13.115Z,2.51
2023-01-08T17:04:58.366Z,2.45
2023-01-08T17:08:49.871Z,2.46
2023-01-08T17:24:40.279Z,2.58
2023-01-08T17:28:26.360Z,2.54
2023-01-08T17:48:12.684Z,2.63
2023-01-08T17:51:44.112Z,2.61
2023-01-08T17:55:37.175Z,2.65
2023-01-08T17:59:30.516Z,2.68
2023-01-08T18:03:24.738Z,2.70
2023-01-08T18:26:31.965Z,3.23
2023-01-08T18:30:26.976Z,3.28
2023-01-08T18:34:20.483Z,3.34
2023-01-08T18:49:57.892Z,3.57
2023-01-08T18:53:33.194Z,3.59
2023-01-08T18:57:25.678Z,3.58
2023-01-08T19:01:17.856Z,3.58
2023-01-08T19:17:00.977Z,3.77
2023-01-08T19:20:53.379Z,3.77
2023-01-08T19:24:47.157Z,3.78
2023-01-08T19:28:33.200Z,3.76
2023-01-08T19:40:46.952Z,3.95
2023-01-08T19:44:35.577Z,3.94
2023-01-08T19:48:26.660Z,3.92
2023-01-08T19:52:19.181Z,3.92
2023-01-08T20:04:14.192Z,4.02
2023-01-08T20:07:53.443Z,3.99
2023-01-08T20:11:48.800Z,3.99
2023-01-08T20:15:41.544Z,3.96
2023-01-08T20:19:19.063Z,3.95
2023-01-08T20:38:53.945Z,4.04
2023-01-08T20:42:47.745Z,4.00
2023-01-08T20:46:40.225Z,4.00
2023-01-08T21:10:10.548Z,4.00
2023-01-08T21:14:05.157Z,3.99
2023-01-08T21:17:58.131Z,4.02
2023-01-08T21:21:53.005Z,4.00
2023-01-08T21:41:17.765Z,3.85
2023-01-08T21:45:09.065Z,3.71
2023-01-08T21:49:01.258Z,3.56
2023-01-08T21:52:52.254Z,3.38
2023-01-08T21:56:43.539Z,3.27
2023-01-08T22:16:23.609Z,3.49
2023-01-08T22:20:17.137Z,3.54
2023-01-08T22:24:09.613Z,3.58
2023-01-08T22:28:01.948Z,3.57
2023-01-08T22:43:46.443Z,3.68
2023-01-08T22:47:39.687Z,3.64
2023-01-08T22:51:31.357Z,3.65
2023-01-08T22:55:18.170Z,3.68
2023-01-08T23:14:20.735Z,3.82
2023-01-08T23:18:12.768Z,3.83
2023-01-08T23:22:06.179Z,3.84
2023-01-08T23:25:48.807Z,3.82
2023-01-08T23:52:55.985Z,3.70
2023-01-08T23:56:31.947Z,3.60
